Highlands, New Jersey
Current Conditions -  °F | °C
As of 9:35 PM on Saturday 22 Nov 2014 (Local Time) from KBLM Reporting Station
Broken Clouds Broken Clouds  
Wind Chill: 37°   Ceiling: 11000
Heat Index: 43°   Visibility: 10mi
Dew Point: 19°   Wind: 12mph
Humidity: 39%   Direction: 240°WSW
Pressure: 30.23"   Gusts: 16mph
Location:  40.4°N, 73.99°W
Report Text: KBLM 230235Z AUTO 24010G14KT 10SM BKN110 06/M07 A3023 RMK AO1
Loading
Personal Weather Stations






























Interactive Weather Map New forecast layout! Learn more

10-Day Weather Forecast

Advertisements
Track Severe Weather on mobile